Time;durP1;ratioP1;P1;durP2;ratioP2;P2;SDS_P1;SDS_P2;PMS_P1;PMS_P2;Temp;Humidity;BMP_temperature;BMP_pressure;BME280_temperature;BME280_humidity;BME280_pressure;Samples;Min_cycle;Max_cycle;Signal;HPM_P1;HPM_P2
2022/05/17 00:00:15;;;;;;;16.30;5.00;;;;;;;;;;5094917;28;20805;-75
2022/05/17 00:02:42;;;;;;;16.57;5.50;;;;;;;;;;5094628;28;20445;-75
2022/05/17 00:05:10;;;;;;;16.63;5.87;;;;;;;;;;5094405;28;20978;-75
2022/05/17 00:07:38;;;;;;;17.00;5.00;;;;;;;;;;5094180;28;20534;-74
2022/05/17 00:10:07;;;;;;;17.63;5.67;;;;;;;;;;5094394;28;20965;-75
2022/05/17 00:12:35;;;;;;;22.70;5.37;;;;;;;;;;5094682;28;20469;-74
2022/05/17 00:15:02;;;;;;;22.30;6.53;;;;;;;;;;5094288;28;20453;-75
2022/05/17 00:17:30;;;;;;;18.33;5.83;;;;;;;;;;5094307;28;20503;-75
2022/05/17 00:19:57;;;;;;;21.80;5.43;;;;;;;;;;5094195;28;20454;-74
2022/05/17 00:22:25;;;;;;;16.60;5.43;;;;;;;;;;5094134;28;20965;-75
2022/05/17 00:24:52;;;;;;;17.00;6.20;;;;;;;;;;5094013;28;20993;-75
2022/05/17 00:27:21;;;;;;;16.77;5.40;;;;;;;;;;5093972;28;20442;-75
2022/05/17 00:29:50;;;;;;;21.23;5.47;;;;;;;;;;5093575;28;20472;-75
2022/05/17 00:32:17;;;;;;;17.50;6.03;;;;;;;;;;5093986;28;20441;-75
2022/05/17 00:34:46;;;;;;;18.83;5.77;;;;;;;;;;5094067;28;20449;-75
2022/05/17 00:37:14;;;;;;;20.93;5.90;;;;;;;;;;5093608;28;20485;-75
2022/05/17 00:39:41;;;;;;;15.67;5.37;;;;;;;;;;5094063;28;20527;-75
2022/05/17 00:42:09;;;;;;;15.73;5.37;;;;;;;;;;5093670;28;20453;-75
2022/05/17 00:44:44;;;;;;;19.07;5.70;;;;;;;;;;5093991;28;20438;-75
2022/05/17 00:47:14;;;;;;;18.30;5.07;;;;;;;;;;5093753;28;20473;-75
2022/05/17 00:49:44;;;;;;;17.87;5.70;;;;;;;;;;5093586;28;20441;-75
2022/05/17 00:52:14;;;;;;;17.23;5.50;;;;;;;;;;5094010;28;20438;-75
2022/05/17 00:54:44;;;;;;;17.00;5.73;;;;;;;;;;5094183;28;20438;-74
2022/05/17 00:57:16;;;;;;;17.03;5.40;;;;;;;;;;5093250;28;20478;-75
2022/05/17 00:59:45;;;;;;;16.93;5.40;;;;;;;;;;5093657;28;20444;-75
2022/05/17 01:02:13;;;;;;;21.57;6.60;;;;;;;;;;5093407;28;20453;-74
2022/05/17 01:04:41;;;;;;;14.80;4.80;;;;;;;;;;5093286;28;20532;-74
2022/05/17 01:07:10;;;;;;;18.60;5.60;;;;;;;;;;5093378;28;20828;-75
2022/05/17 01:09:38;;;;;;;17.10;6.13;;;;;;;;;;5093166;28;20468;-75
2022/05/17 01:12:06;;;;;;;18.47;5.40;;;;;;;;;;5093185;28;20442;-74
2022/05/17 01:17:21;;;;;;;16.80;5.80;;;;;;;;;;5093017;28;20493;-74
2022/05/17 01:19:48;;;;;;;15.57;5.40;;;;;;;;;;5092991;28;20445;-75
2022/05/17 01:22:17;;;;;;;20.80;4.73;;;;;;;;;;5093141;28;20442;-74
2022/05/17 01:24:45;;;;;;;15.80;4.93;;;;;;;;;;5092837;28;20495;-74
2022/05/17 01:27:15;;;;;;;15.47;5.00;;;;;;;;;;5092802;28;20442;-75
2022/05/17 01:29:43;;;;;;;17.50;5.13;;;;;;;;;;5092875;28;20469;-75
2022/05/17 01:32:12;;;;;;;15.53;5.43;;;;;;;;;;5092684;28;20434;-74
2022/05/17 01:34:40;;;;;;;16.67;6.70;;;;;;;;;;5092823;28;20445;-75
2022/05/17 01:37:08;;;;;;;18.10;6.50;;;;;;;;;;5092649;28;20478;-74
2022/05/17 01:39:37;;;;;;;16.77;5.83;;;;;;;;;;5092400;28;20452;-74
2022/05/17 01:42:04;;;;;;;16.40;5.40;;;;;;;;;;5092761;28;20432;-74
2022/05/17 01:44:32;;;;;;;17.00;5.57;;;;;;;;;;5092496;28;20433;-74
2022/05/17 01:47:00;;;;;;;18.10;5.90;;;;;;;;;;5092598;28;20454;-75
2022/05/17 01:49:27;;;;;;;18.43;6.07;;;;;;;;;;5092306;28;20931;-74
2022/05/17 01:51:55;;;;;;;19.33;6.20;;;;;;;;;;5092463;28;20448;-74
2022/05/17 01:54:23;;;;;;;19.00;5.70;;;;;;;;;;5092241;28;20448;-74
2022/05/17 01:56:51;;;;;;;17.20;6.23;;;;;;;;;;5092243;28;21206;-74
2022/05/17 01:59:19;;;;;;;21.03;6.83;;;;;;;;;;5092227;28;20448;-74
2022/05/17 02:01:46;;;;;;;18.60;5.83;;;;;;;;;;5092657;28;20434;-74
2022/05/17 02:04:14;;;;;;;17.57;5.67;;;;;;;;;;5091980;28;20446;-74
2022/05/17 02:06:42;;;;;;;16.03;5.73;;;;;;;;;;5092117;28;20446;-74
2022/05/17 02:09:10;;;;;;;18.17;6.23;;;;;;;;;;5092388;28;20434;-74
2022/05/17 02:11:37;;;;;;;16.70;5.63;;;;;;;;;;5091760;28;20833;-75
2022/05/17 02:14:06;;;;;;;17.57;6.13;;;;;;;;;;5092690;28;20467;-74
2022/05/17 02:16:35;;;;;;;23.00;5.83;;;;;;;;;;5091887;28;20459;-74
2022/05/17 02:19:03;;;;;;;16.77;5.97;;;;;;;;;;5092177;28;20491;-74
2022/05/17 02:21:30;;;;;;;19.67;5.57;;;;;;;;;;5091696;28;20453;-74
2022/05/17 02:23:58;;;;;;;19.87;5.97;;;;;;;;;;5092823;28;20438;-74
2022/05/17 02:26:27;;;;;;;17.80;5.70;;;;;;;;;;5092533;28;20449;-74
2022/05/17 02:28:54;;;;;;;18.23;5.07;;;;;;;;;;5091519;28;20548;-74
2022/05/17 02:31:23;;;;;;;21.13;6.67;;;;;;;;;;5091816;28;20443;-74
2022/05/17 02:33:51;;;;;;;17.33;5.30;;;;;;;;;;5092127;28;20444;-74
2022/05/17 02:36:18;;;;;;;16.50;6.20;;;;;;;;;;5092250;28;20449;-74
2022/05/17 02:38:46;;;;;;;15.10;4.90;;;;;;;;;;5091971;28;20513;-74
2022/05/17 02:41:13;;;;;;;16.40;5.73;;;;;;;;;;5091741;28;20826;-74
2022/05/17 02:43:41;;;;;;;17.07;5.53;;;;;;;;;;5091822;28;20450;-74
2022/05/17 02:46:08;;;;;;;15.10;5.90;;;;;;;;;;5092039;28;20446;-74
2022/05/17 02:48:37;;;;;;;16.93;5.50;;;;;;;;;;5091628;28;20438;-75
2022/05/17 02:51:11;;;;;;;17.97;6.83;;;;;;;;;;5091661;28;20827;-74
2022/05/17 02:53:39;;;;;;;17.73;6.63;;;;;;;;;;5091906;28;20524;-74
2022/05/17 02:56:07;;;;;;;19.37;5.50;;;;;;;;;;5091828;28;20444;-74
2022/05/17 02:58:35;;;;;;;19.37;5.83;;;;;;;;;;5091751;28;20477;-74
2022/05/17 03:01:03;;;;;;;22.07;7.10;;;;;;;;;;5091713;28;20441;-75
2022/05/17 03:03:30;;;;;;;17.33;6.13;;;;;;;;;;5091648;28;20436;-74
2022/05/17 03:05:59;;;;;;;17.70;7.30;;;;;;;;;;5092288;28;20827;-74
2022/05/17 03:08:27;;;;;;;20.37;6.90;;;;;;;;;;5091557;28;20487;-75
2022/05/17 03:10:54;;;;;;;17.90;6.10;;;;;;;;;;5091667;28;20449;-74
2022/05/17 03:13:22;;;;;;;17.60;6.77;;;;;;;;;;5091232;28;20535;-74
2022/05/17 03:15:51;;;;;;;17.17;5.87;;;;;;;;;;5091959;28;20448;-74
2022/05/17 03:18:19;;;;;;;17.47;6.40;;;;;;;;;;5095509;28;20490;-74
2022/05/17 03:20:47;;;;;;;20.17;7.23;;;;;;;;;;5095249;28;20445;-74
2022/05/17 03:23:15;;;;;;;18.47;6.10;;;;;;;;;;5095236;28;20452;-75
2022/05/17 03:25:43;;;;;;;16.20;6.00;;;;;;;;;;5095204;28;20942;-74
2022/05/17 03:28:12;;;;;;;19.77;7.37;;;;;;;;;;5095065;28;20447;-74
2022/05/17 03:30:40;;;;;;;18.67;6.73;;;;;;;;;;5095098;28;20822;-74
2022/05/17 03:33:08;;;;;;;22.50;6.83;;;;;;;;;;5095355;28;20448;-74
2022/05/17 03:35:36;;;;;;;23.87;5.90;;;;;;;;;;5094912;28;20437;-74
2022/05/17 03:38:03;;;;;;;16.03;5.30;;;;;;;;;;5095160;28;20487;-74
2022/05/17 03:40:32;;;;;;;24.03;5.73;;;;;;;;;;5094796;28;20973;-74
2022/05/17 03:43:00;;;;;;;19.80;6.60;;;;;;;;;;5095576;28;20437;-74
2022/05/17 03:45:27;;;;;;;25.67;6.80;;;;;;;;;;5094576;28;20452;-74
2022/05/17 03:47:55;;;;;;;15.60;5.50;;;;;;;;;;5094774;28;20456;-74
2022/05/17 03:50:22;;;;;;;16.40;5.90;;;;;;;;;;5094808;28;20970;-75
2022/05/17 03:52:50;;;;;;;19.00;5.13;;;;;;;;;;5094655;28;20442;-75
2022/05/17 03:55:18;;;;;;;16.70;5.73;;;;;;;;;;5094399;28;20826;-75
2022/05/17 03:57:47;;;;;;;15.43;5.23;;;;;;;;;;5094434;28;20482;-74
2022/05/17 04:00:15;;;;;;;26.97;6.07;;;;;;;;;;5094940;28;20456;-75
2022/05/17 04:02:43;;;;;;;15.30;5.20;;;;;;;;;;5095084;28;20438;-75
2022/05/17 04:05:11;;;;;;;16.10;5.37;;;;;;;;;;5094575;28;20439;-75
2022/05/17 04:07:39;;;;;;;16.60;5.00;;;;;;;;;;5094064;28;20455;-75
2022/05/17 04:10:08;;;;;;;16.13;4.57;;;;;;;;;;5094991;28;20867;-75
2022/05/17 04:12:36;;;;;;;14.60;4.60;;;;;;;;;;5094870;28;20781;-75
2022/05/17 04:15:05;;;;;;;14.73;4.00;;;;;;;;;;5094245;28;20521;-75
2022/05/17 04:17:33;;;;;;;14.50;4.00;;;;;;;;;;5094025;28;20804;-75
2022/05/17 04:20:00;;;;;;;18.77;4.17;;;;;;;;;;5094198;28;20445;-75
2022/05/17 04:22:28;;;;;;;16.03;4.27;;;;;;;;;;5094186;28;20820;-75
2022/05/17 04:24:55;;;;;;;18.30;4.63;;;;;;;;;;5094674;28;20435;-75
2022/05/17 04:27:24;;;;;;;14.47;4.40;;;;;;;;;;5093418;28;20969;-75
2022/05/17 04:29:52;;;;;;;18.33;4.47;;;;;;;;;;5093701;28;20921;-75
2022/05/17 04:32:21;;;;;;;14.70;4.00;;;;;;;;;;5093974;28;20438;-75
2022/05/17 04:34:51;;;;;;;15.33;4.03;;;;;;;;;;5093816;28;20444;-75
2022/05/17 04:37:18;;;;;;;14.33;4.30;;;;;;;;;;5093959;28;20450;-75
2022/05/17 04:39:46;;;;;;;15.60;4.50;;;;;;;;;;5093798;28;20949;-75
2022/05/17 04:42:13;;;;;;;14.30;4.10;;;;;;;;;;5094446;28;20457;-75
2022/05/17 04:44:41;;;;;;;14.27;3.93;;;;;;;;;;5093752;28;20448;-75
2022/05/17 04:47:10;;;;;;;15.53;4.20;;;;;;;;;;5093545;28;20433;-75
2022/05/17 04:49:39;;;;;;;18.17;5.00;;;;;;;;;;5093539;28;20447;-75
2022/05/17 04:52:06;;;;;;;15.60;4.00;;;;;;;;;;5094196;28;20435;-76
2022/05/17 04:54:35;;;;;;;15.97;4.53;;;;;;;;;;5093565;28;20446;-76
2022/05/17 04:57:04;;;;;;;17.87;4.13;;;;;;;;;;5093532;28;20452;-75
2022/05/17 04:59:31;;;;;;;15.50;4.40;;;;;;;;;;5093078;28;20552;-75
2022/05/17 05:01:59;;;;;;;14.23;3.87;;;;;;;;;;5093385;28;20494;-75
2022/05/17 05:04:26;;;;;;;15.07;4.40;;;;;;;;;;5093303;28;20443;-75
2022/05/17 05:06:55;;;;;;;15.20;4.50;;;;;;;;;;5093535;28;20446;-75
2022/05/17 05:09:22;;;;;;;16.13;4.20;;;;;;;;;;5093302;28;20451;-75
2022/05/17 05:11:50;;;;;;;14.63;4.50;;;;;;;;;;5093328;28;20430;-76
2022/05/17 05:14:18;;;;;;;20.93;4.50;;;;;;;;;;5092930;28;20457;-75
2022/05/17 05:16:45;;;;;;;16.00;4.57;;;;;;;;;;5093192;28;20444;-75
2022/05/17 05:19:14;;;;;;;19.10;4.10;;;;;;;;;;5093081;28;21012;-76
2022/05/17 05:21:41;;;;;;;14.40;4.10;;;;;;;;;;5093125;28;20445;-76
2022/05/17 05:24:11;;;;;;;16.70;5.43;;;;;;;;;;5093123;28;20888;-75
2022/05/17 05:26:39;;;;;;;14.70;4.10;;;;;;;;;;5092876;28;20448;-75
2022/05/17 05:29:07;;;;;;;16.50;4.60;;;;;;;;;;5092409;28;20838;-76
2022/05/17 05:31:34;;;;;;;15.80;4.70;;;;;;;;;;5092554;28;20966;-76
2022/05/17 05:34:02;;;;;;;16.80;5.03;;;;;;;;;;5092735;28;20438;-76
2022/05/17 05:36:30;;;;;;;16.23;5.63;;;;;;;;;;5092771;28;20450;-76
2022/05/17 05:38:58;;;;;;;22.67;6.60;;;;;;;;;;5091826;28;20486;-76
2022/05/17 05:41:27;;;;;;;17.00;6.00;;;;;;;;;;5092600;28;20460;-76
2022/05/17 05:43:54;;;;;;;15.90;6.07;;;;;;;;;;5092983;28;20446;-76
2022/05/17 05:46:22;;;;;;;17.17;6.40;;;;;;;;;;5092781;28;20492;-76
2022/05/17 05:48:50;;;;;;;19.47;6.27;;;;;;;;;;5092561;28;20455;-76
2022/05/17 05:51:18;;;;;;;18.03;5.40;;;;;;;;;;5092730;28;20511;-76
2022/05/17 05:53:45;;;;;;;16.73;5.60;;;;;;;;;;5092322;28;20529;-76
2022/05/17 05:56:13;;;;;;;16.50;5.30;;;;;;;;;;5092349;28;20438;-77
2022/05/17 05:58:43;;;;;;;14.60;4.90;;;;;;;;;;5092313;28;20482;-76
2022/05/17 06:01:11;;;;;;;17.30;5.40;;;;;;;;;;5092556;28;20879;-76
2022/05/17 06:03:38;;;;;;;15.90;5.10;;;;;;;;;;5091991;28;20453;-76
2022/05/17 06:06:06;;;;;;;15.00;4.30;;;;;;;;;;5092300;28;20450;-76
2022/05/17 06:08:34;;;;;;;15.73;5.00;;;;;;;;;;5092048;28;20442;-76
2022/05/17 06:11:02;;;;;;;15.03;5.13;;;;;;;;;;5092672;28;21001;-77
2022/05/17 06:13:30;;;;;;;14.73;4.60;;;;;;;;;;5091866;28;20434;-76
2022/05/17 06:15:59;;;;;;;14.63;4.43;;;;;;;;;;5092064;28;20529;-76
2022/05/17 06:18:26;;;;;;;15.43;5.40;;;;;;;;;;5092043;28;20490;-76
2022/05/17 06:20:55;;;;;;;16.17;4.97;;;;;;;;;;5091940;28;20450;-76
2022/05/17 06:23:23;;;;;;;16.50;5.47;;;;;;;;;;5091778;28;20539;-76
2022/05/17 06:25:51;;;;;;;16.30;5.23;;;;;;;;;;5091926;28;20430;-75
2022/05/17 06:28:19;;;;;;;16.50;4.93;;;;;;;;;;5091894;28;20456;-75
2022/05/17 06:30:46;;;;;;;15.83;5.10;;;;;;;;;;5091528;28;20501;-76
2022/05/17 06:33:16;;;;;;;16.67;5.40;;;;;;;;;;5091790;28;20438;-76
2022/05/17 06:35:44;;;;;;;18.27;5.30;;;;;;;;;;5091997;28;20442;-75
2022/05/17 06:38:12;;;;;;;14.83;5.13;;;;;;;;;;5091777;28;21011;-75
2022/05/17 06:40:40;;;;;;;17.50;4.70;;;;;;;;;;5092023;28;20843;-75
2022/05/17 06:43:07;;;;;;;15.63;4.80;;;;;;;;;;5091859;28;20441;-75
2022/05/17 06:45:35;;;;;;;21.47;4.90;;;;;;;;;;5091754;28;20431;-76
2022/05/17 06:48:03;;;;;;;15.63;4.87;;;;;;;;;;5091662;28;20939;-76
2022/05/17 06:50:32;;;;;;;15.27;4.60;;;;;;;;;;5093485;28;20442;-75
2022/05/17 06:53:00;;;;;;;17.87;4.63;;;;;;;;;;5096197;28;20442;-75
2022/05/17 06:55:28;;;;;;;17.60;4.73;;;;;;;;;;5095794;28;20852;-75
2022/05/17 06:57:55;;;;;;;15.13;4.00;;;;;;;;;;5095758;28;20950;-75
2022/05/17 07:00:23;;;;;;;14.07;3.90;;;;;;;;;;5095787;28;20481;-75
2022/05/17 07:02:51;;;;;;;18.63;5.23;;;;;;;;;;5095613;28;20953;-75
2022/05/17 07:05:18;;;;;;;14.90;4.37;;;;;;;;;;5095410;28;20441;-75
2022/05/17 07:07:47;;;;;;;17.53;4.33;;;;;;;;;;5095574;28;20449;-75
2022/05/17 07:13:09;;;;;;;17.40;4.60;;;;;;;;;;5095651;28;20841;-75
2022/05/17 07:15:37;;;;;;;15.43;4.57;;;;;;;;;;5095473;28;20464;-75
2022/05/17 07:18:05;;;;;;;18.00;4.63;;;;;;;;;;5095769;28;20858;-76
2022/05/17 07:20:32;;;;;;;16.37;4.93;;;;;;;;;;5095538;28;20474;-75
2022/05/17 07:23:03;;;;;;;15.50;4.60;;;;;;;;;;5095323;28;20433;-75
2022/05/17 07:25:31;;;;;;;15.87;5.17;;;;;;;;;;5094955;28;20445;-75
2022/05/17 07:27:58;;;;;;;13.97;4.60;;;;;;;;;;5095170;28;20540;-76
2022/05/17 07:30:26;;;;;;;15.20;4.27;;;;;;;;;;5094978;28;20454;-75
2022/05/17 07:32:53;;;;;;;16.43;4.93;;;;;;;;;;5095519;28;20505;-75
2022/05/17 07:35:22;;;;;;;16.20;4.63;;;;;;;;;;5095135;28;20457;-76
2022/05/17 07:37:49;;;;;;;15.27;4.60;;;;;;;;;;5095264;28;20885;-76
2022/05/17 07:40:19;;;;;;;14.47;4.27;;;;;;;;;;5094929;28;20478;-75
2022/05/17 07:42:48;;;;;;;14.13;4.73;;;;;;;;;;5094912;28;20452;-75
2022/05/17 07:45:16;;;;;;;17.00;4.60;;;;;;;;;;5094898;28;20491;-75
2022/05/17 07:47:45;;;;;;;16.53;4.40;;;;;;;;;;5095033;28;20450;-75
2022/05/17 07:50:12;;;;;;;17.67;4.40;;;;;;;;;;5094841;28;20464;-75
2022/05/17 07:52:41;;;;;;;14.60;4.03;;;;;;;;;;5094683;28;20965;-75
2022/05/17 07:55:10;;;;;;;16.53;4.60;;;;;;;;;;5094952;28;20438;-75
2022/05/17 07:57:39;;;;;;;17.27;4.20;;;;;;;;;;5094577;28;20430;-75
2022/05/17 08:00:08;;;;;;;16.10;4.53;;;;;;;;;;5094638;28;20528;-75
2022/05/17 08:02:36;;;;;;;18.60;5.10;;;;;;;;;;5093694;28;20449;-75
2022/05/17 08:05:03;;;;;;;16.10;4.40;;;;;;;;;;5094430;28;20438;-75
2022/05/17 08:07:31;;;;;;;15.17;5.00;;;;;;;;;;5094525;28;20450;-75
2022/05/17 08:09:58;;;;;;;15.67;4.37;;;;;;;;;;5094411;28;20442;-75
2022/05/17 08:12:26;;;;;;;15.83;5.00;;;;;;;;;;5094463;28;20810;-74
2022/05/17 08:14:55;;;;;;;16.93;5.00;;;;;;;;;;5094725;28;20422;-75
2022/05/17 08:17:23;;;;;;;19.37;4.80;;;;;;;;;;5094283;28;20485;-75
2022/05/17 08:19:51;;;;;;;15.90;4.40;;;;;;;;;;5094080;28;20476;-75
2022/05/17 08:22:18;;;;;;;16.27;3.97;;;;;;;;;;5094412;28;20426;-75
2022/05/17 08:27:36;;;;;;;19.30;3.97;;;;;;;;;;5094180;28;20428;-75
2022/05/17 08:30:08;;;;;;;22.20;4.73;;;;;;;;;;5094033;28;20455;-75
2022/05/17 08:35:23;;;;;;;16.23;4.77;;;;;;;;;;5067523;28;20438;-75
2022/05/17 08:37:51;;;;;;;15.00;4.20;;;;;;;;;;5094065;28;20444;-75
2022/05/17 08:40:21;;;;;;;14.33;3.87;;;;;;;;;;5093836;28;20557;-75
2022/05/17 08:42:53;;;;;;;16.70;3.93;;;;;;;;;;5093818;28;20433;-75
2022/05/17 08:45:30;;;;;;;14.37;4.30;;;;;;;;;;5093531;28;20446;-74
2022/05/17 08:47:57;;;;;;;16.60;5.20;;;;;;;;;;5093850;28;20472;-75
2022/05/17 08:50:27;;;;;;;16.20;4.70;;;;;;;;;;5093610;28;20446;-75
2022/05/17 08:52:56;;;;;;;17.93;4.90;;;;;;;;;;5093588;28;20800;-75
2022/05/17 08:55:26;;;;;;;20.37;4.70;;;;;;;;;;5093287;28;20826;-75
2022/05/17 08:57:55;;;;;;;16.33;3.87;;;;;;;;;;5093427;28;20450;-75
2022/05/17 09:00:25;;;;;;;17.53;4.30;;;;;;;;;;5093288;28;20497;-75
2022/05/17 09:02:53;;;;;;;14.40;3.77;;;;;;;;;;5093654;28;20445;-75
2022/05/17 09:05:30;;;;;;;15.80;3.80;;;;;;;;;;5093099;28;20449;-75
2022/05/17 09:08:01;;;;;;;16.00;3.93;;;;;;;;;;5093260;28;20444;-75
2022/05/17 09:10:31;;;;;;;14.80;4.23;;;;;;;;;;5093232;28;20507;-75
2022/05/17 09:13:02;;;;;;;14.20;4.07;;;;;;;;;;5093392;28;20449;-75
2022/05/17 09:15:31;;;;;;;18.83;4.00;;;;;;;;;;5093108;28;20461;-75
2022/05/17 09:18:01;;;;;;;17.83;4.20;;;;;;;;;;5093324;28;20477;-75
2022/05/17 09:20:30;;;;;;;15.43;3.97;;;;;;;;;;5092959;28;20473;-75
2022/05/17 09:22:58;;;;;;;16.17;3.77;;;;;;;;;;5093200;28;20469;-75
2022/05/17 09:25:28;;;;;;;16.63;4.37;;;;;;;;;;5092698;28;20444;-75
2022/05/17 09:27:56;;;;;;;13.93;4.27;;;;;;;;;;5093001;28;20978;-75
2022/05/17 09:30:32;;;;;;;14.73;3.60;;;;;;;;;;5092467;28;20466;-75
2022/05/17 09:33:03;;;;;;;16.70;4.27;;;;;;;;;;5092841;28;21024;-75
2022/05/17 09:35:30;;;;;;;16.93;3.57;;;;;;;;;;5092828;28;20438;-75
2022/05/17 09:38:01;;;;;;;15.70;4.57;;;;;;;;;;5092795;28;20440;-75
2022/05/17 09:40:30;;;;;;;13.60;3.83;;;;;;;;;;5092777;28;20481;-75
2022/05/17 09:43:02;;;;;;;21.03;4.60;;;;;;;;;;5092712;28;20850;-75
2022/05/17 09:45:49;;;;;;;15.57;3.87;;;;;;;;;;5092670;28;20465;-75
2022/05/17 09:48:27;;;;;;;16.83;4.50;;;;;;;;;;5092542;28;20438;-75
2022/05/17 09:53:46;;;;;;;14.70;4.13;;;;;;;;;;5035305;28;20449;-75
2022/05/17 09:56:16;;;;;;;14.80;3.90;;;;;;;;;;5092457;28;20438;-75
2022/05/17 09:58:44;;;;;;;18.90;4.03;;;;;;;;;;5092554;28;20515;-75
2022/05/17 10:01:16;;;;;;;21.03;4.90;;;;;;;;;;5092210;28;20849;-75
2022/05/17 10:03:44;;;;;;;15.20;4.03;;;;;;;;;;5092558;28;20429;-75
2022/05/17 10:06:15;;;;;;;14.57;3.43;;;;;;;;;;5092169;28;20980;-75
2022/05/17 10:08:45;;;;;;;15.40;3.70;;;;;;;;;;5092209;28;20452;-75
2022/05/17 10:11:18;;;;;;;16.57;4.33;;;;;;;;;;5092251;28;20442;-75
2022/05/17 10:14:09;;;;;;;17.77;4.10;;;;;;;;;;5092637;28;20827;-75
2022/05/17 10:16:42;;;;;;;14.20;3.80;;;;;;;;;;5072231;28;20454;-75
2022/05/17 10:19:17;;;;;;;15.40;3.30;;;;;;;;;;5092407;28;20441;-74
2022/05/17 10:21:48;;;;;;;13.97;3.57;;;;;;;;;;5092474;28;20814;-75
2022/05/17 10:24:19;;;;;;;17.50;3.90;;;;;;;;;;5092618;28;20449;-75
2022/05/17 10:26:48;;;;;;;16.67;4.63;;;;;;;;;;5091796;28;20961;-75
2022/05/17 10:29:21;;;;;;;14.60;3.60;;;;;;;;;;5091531;28;20986;-74
2022/05/17 10:31:54;;;;;;;15.33;3.80;;;;;;;;;;5092216;28;20457;-75
2022/05/17 10:34:34;;;;;;;16.37;3.80;;;;;;;;;;5092045;28;20440;-75
2022/05/17 10:37:05;;;;;;;12.90;3.27;;;;;;;;;;5092193;28;20444;-75
2022/05/17 10:39:35;;;;;;;18.53;3.90;;;;;;;;;;5091640;28;20472;-75
2022/05/17 10:42:02;;;;;;;23.80;3.70;;;;;;;;;;5092241;28;20453;-75
2022/05/17 10:44:38;;;;;;;14.27;3.60;;;;;;;;;;5092071;28;20442;-75
2022/05/17 10:47:11;;;;;;;15.30;4.20;;;;;;;;;;5092154;28;20526;-75
2022/05/17 10:49:44;;;;;;;15.40;3.80;;;;;;;;;;5091574;28;20446;-75
2022/05/17 10:52:15;;;;;;;17.10;4.70;;;;;;;;;;5092158;28;20434;-75
2022/05/17 10:54:49;;;;;;;17.70;3.43;;;;;;;;;;5091716;28;20430;-75
2022/05/17 10:57:22;;;;;;;16.33;3.70;;;;;;;;;;5091616;28;20490;-75
2022/05/17 10:59:53;;;;;;;14.87;4.00;;;;;;;;;;5091865;28;20477;-75
2022/05/17 11:02:28;;;;;;;13.63;3.60;;;;;;;;;;5091925;28;20460;-75
2022/05/17 11:05:04;;;;;;;14.57;3.97;;;;;;;;;;5092314;28;20434;-75
2022/05/17 11:07:38;;;;;;;14.43;3.47;;;;;;;;;;5091785;28;20436;-75
2022/05/17 11:10:10;;;;;;;18.90;4.53;;;;;;;;;;5091938;28;20440;-75
2022/05/17 11:12:42;;;;;;;16.40;3.30;;;;;;;;;;5091716;28;20454;-75
2022/05/17 11:15:11;;;;;;;17.37;3.70;;;;;;;;;;5091556;28;20444;-75
2022/05/17 11:17:50;;;;;;;15.10;3.70;;;;;;;;;;5091226;28;20483;-75
2022/05/17 11:20:19;;;;;;;20.97;6.13;;;;;;;;;;5091751;28;20922;-75
2022/05/17 11:22:49;;;;;;;15.30;3.83;;;;;;;;;;5091406;28;20442;-75
2022/05/17 11:25:33;;;;;;;15.03;3.80;;;;;;;;;;5091346;28;20442;-76
2022/05/17 11:28:06;;;;;;;21.43;4.90;;;;;;;;;;5091394;28;20954;-75
2022/05/17 11:30:36;;;;;;;13.90;3.67;;;;;;;;;;5091295;28;20465;-75
2022/05/17 11:33:13;;;;;;;18.83;4.10;;;;;;;;;;5091915;28;20441;-75
2022/05/17 11:35:48;;;;;;;20.07;3.80;;;;;;;;;;5091285;28;20442;-75
2022/05/17 11:38:19;;;;;;;19.43;4.60;;;;;;;;;;5093850;28;20437;-75
2022/05/17 11:40:54;;;;;;;19.03;3.83;;;;;;;;;;5095094;28;20994;-75
2022/05/17 11:43:42;;;;;;;15.60;3.40;;;;;;;;;;5095006;28;20816;-75
2022/05/17 11:46:24;;;;;;;15.33;3.53;;;;;;;;;;5095244;28;20438;-75
2022/05/17 11:48:56;;;;;;;17.23;3.30;;;;;;;;;;5092996;28;20426;-75
2022/05/17 11:51:24;;;;;;;15.67;4.10;;;;;;;;;;5094647;28;20472;-75
2022/05/17 11:53:53;;;;;;;15.43;3.60;;;;;;;;;;5094999;28;20442;-75
2022/05/17 11:56:33;;;;;;;21.30;4.83;;;;;;;;;;5094662;28;20442;-75
2022/05/17 11:59:02;;;;;;;14.17;3.13;;;;;;;;;;5095153;28;20438;-75
2022/05/17 12:01:46;;;;;;;13.97;3.57;;;;;;;;;;5094486;28;20481;-75
2022/05/17 12:04:34;;;;;;;13.57;3.20;;;;;;;;;;5094915;28;20434;-75
2022/05/17 12:07:20;;;;;;;16.30;3.83;;;;;;;;;;5094729;28;20810;-75
2022/05/17 12:09:49;;;;;;;14.60;3.60;;;;;;;;;;5094587;28;20442;-75
2022/05/17 12:12:24;;;;;;;13.90;3.40;;;;;;;;;;5094606;28;20442;-75
2022/05/17 12:14:56;;;;;;;13.70;3.87;;;;;;;;;;5094596;28;20437;-75
2022/05/17 12:17:27;;;;;;;18.70;3.57;;;;;;;;;;5094576;28;20492;-75
2022/05/17 12:20:00;;;;;;;17.03;3.80;;;;;;;;;;5094370;28;20521;-75
2022/05/17 12:22:32;;;;;;;17.20;3.57;;;;;;;;;;5094510;28;20476;-75
2022/05/17 12:25:01;;;;;;;15.93;4.00;;;;;;;;;;5094493;28;20881;-75
2022/05/17 12:27:31;;;;;;;15.30;4.13;;;;;;;;;;5093844;28;20453;-75
2022/05/17 12:32:52;;;;;;;14.80;3.60;;;;;;;;;;5094399;28;20421;-75
2022/05/17 12:35:25;;;;;;;13.60;3.40;;;;;;;;;;5093722;28;20450;-75
2022/05/17 12:37:54;;;;;;;13.90;3.20;;;;;;;;;;5094041;28;20446;-75
2022/05/17 12:43:12;;;;;;;13.27;3.50;;;;;;;;;;5094085;28;20425;-75
2022/05/17 12:45:42;;;;;;;14.97;3.20;;;;;;;;;;5094044;28;20452;-75
2022/05/17 12:48:14;;;;;;;15.40;3.83;;;;;;;;;;5093349;28;20494;-75
2022/05/17 12:50:44;;;;;;;15.90;3.50;;;;;;;;;;5093550;28;20446;-74
2022/05/17 12:53:16;;;;;;;15.10;3.87;;;;;;;;;;5093645;28;20521;-75
2022/05/17 12:55:56;;;;;;;16.77;2.90;;;;;;;;;;5094108;28;20441;-75
2022/05/17 12:58:24;;;;;;;14.70;3.60;;;;;;;;;;5093835;28;20442;-75
2022/05/17 13:00:54;;;;;;;14.13;3.97;;;;;;;;;;5093366;28;20487;-75
2022/05/17 13:03:22;;;;;;;15.80;3.17;;;;;;;;;;5093178;28;20519;-75
2022/05/17 13:05:51;;;;;;;15.17;4.33;;;;;;;;;;5093576;28;20441;-75
2022/05/17 13:08:22;;;;;;;14.33;3.47;;;;;;;;;;5093285;28;20448;-75
2022/05/17 13:10:58;;;;;;;14.73;3.67;;;;;;;;;;5093805;28;20842;-75
2022/05/17 13:13:27;;;;;;;19.37;3.87;;;;;;;;;;5092944;28;20449;-75
2022/05/17 13:15:56;;;;;;;16.60;3.30;;;;;;;;;;5093260;28;20437;-75
2022/05/17 13:18:24;;;;;;;15.37;3.80;;;;;;;;;;5093748;28;20466;-75
2022/05/17 13:20:53;;;;;;;15.60;4.30;;;;;;;;;;5093369;28;20485;-75
2022/05/17 13:23:24;;;;;;;14.00;3.87;;;;;;;;;;5093224;28;20442;-75
2022/05/17 13:25:52;;;;;;;21.93;4.93;;;;;;;;;;5093035;28;20434;-75
2022/05/17 13:28:26;;;;;;;15.00;3.37;;;;;;;;;;5092877;28;20476;-75
2022/05/17 13:31:03;;;;;;;15.53;3.90;;;;;;;;;;5092869;28;20457;-75
2022/05/17 13:33:31;;;;;;;15.80;3.27;;;;;;;;;;5092592;28;20469;-75
2022/05/17 13:36:07;;;;;;;14.07;3.13;;;;;;;;;;5092837;28;20458;-75
2022/05/17 13:38:37;;;;;;;18.00;3.57;;;;;;;;;;5092750;28;20446;-74
2022/05/17 13:41:05;;;;;;;14.57;3.03;;;;;;;;;;5092989;28;20529;-75
2022/05/17 13:43:36;;;;;;;15.10;2.80;;;;;;;;;;5092404;28;20951;-75
2022/05/17 13:46:09;;;;;;;20.57;3.37;;;;;;;;;;5092584;28;20947;-75
2022/05/17 13:48:37;;;;;;;13.40;3.30;;;;;;;;;;5092610;28;20452;-75
2022/05/17 13:51:06;;;;;;;11.10;2.60;;;;;;;;;;5092405;28;20962;-75
2022/05/17 13:53:34;;;;;;;14.63;3.03;;;;;;;;;;5092502;28;20472;-75
2022/05/17 13:56:04;;;;;;;18.90;3.17;;;;;;;;;;5092606;28;20438;-75
2022/05/17 13:58:32;;;;;;;16.57;3.17;;;;;;;;;;5092380;28;20434;-75
2022/05/17 14:01:06;;;;;;;17.30;3.20;;;;;;;;;;5091900;28;20482;-75
2022/05/17 14:03:34;;;;;;;13.60;2.90;;;;;;;;;;5092158;28;20456;-75
2022/05/17 14:06:11;;;;;;;16.77;3.70;;;;;;;;;;5092746;28;20449;-75
2022/05/17 14:14:14;;;;;;;13.80;2.73;;;;;;;;;;5092806;28;20430;-75
2022/05/17 14:16:43;;;;;;;14.67;3.77;;;;;;;;;;5092591;28;20442;-75
2022/05/17 14:19:12;;;;;;;13.17;3.20;;;;;;;;;;5092329;28;20434;-76
2022/05/17 14:21:42;;;;;;;15.00;3.23;;;;;;;;;;5092299;28;21005;-75
2022/05/17 14:24:14;;;;;;;14.40;3.17;;;;;;;;;;5092206;28;20426;-76
2022/05/17 14:26:43;;;;;;;13.73;3.10;;;;;;;;;;5092385;28;20441;-75
2022/05/17 14:29:11;;;;;;;17.03;3.10;;;;;;;;;;5091628;28;20461;-76
2022/05/17 14:31:40;;;;;;;17.40;3.23;;;;;;;;;;5092096;28;20444;-76
2022/05/17 14:34:10;;;;;;;18.33;3.33;;;;;;;;;;5091988;28;21004;-75
2022/05/17 14:36:38;;;;;;;13.70;2.90;;;;;;;;;;5092179;28;20446;-76
2022/05/17 14:39:05;;;;;;;16.37;3.60;;;;;;;;;;5091810;28;20435;-75
2022/05/17 14:41:34;;;;;;;18.03;3.27;;;;;;;;;;5091552;28;20482;-75
2022/05/17 14:44:03;;;;;;;17.87;3.63;;;;;;;;;;5091805;28;20954;-76
2022/05/17 14:46:31;;;;;;;13.40;3.33;;;;;;;;;;5091787;28;20457;-75
2022/05/17 14:48:58;;;;;;;14.10;3.07;;;;;;;;;;5091833;28;20538;-75
2022/05/17 14:51:27;;;;;;;13.70;3.00;;;;;;;;;;5091462;28;20623;-75
2022/05/17 14:53:55;;;;;;;16.63;3.03;;;;;;;;;;5092071;28;20453;-75
2022/05/17 14:56:23;;;;;;;14.30;2.90;;;;;;;;;;5091966;28;20442;-75
2022/05/17 14:58:51;;;;;;;14.10;2.90;;;;;;;;;;5091772;28;20446;-75
2022/05/17 15:01:21;;;;;;;14.37;3.47;;;;;;;;;;5091549;28;20478;-76
2022/05/17 15:03:52;;;;;;;15.30;3.23;;;;;;;;;;5091659;28;20946;-75
2022/05/17 15:06:19;;;;;;;15.00;3.20;;;;;;;;;;5091694;28;20441;-76
2022/05/17 15:08:48;;;;;;;14.43;3.03;;;;;;;;;;5091578;28;20434;-75